sensor_id;sensor_type;location;lat;lon;timestamp;P1;durP1;ratioP1;P2;durP2;ratioP2
15480;SDS011;7842;50.904;6.670;2023-04-07T00:02:15;23.10;;;15.48;;
15480;SDS011;7842;50.904;6.670;2023-04-07T00:04:41;18.13;;;13.50;;
15480;SDS011;7842;50.904;6.670;2023-04-07T00:07:07;14.68;;;11.75;;
15480;SDS011;7842;50.904;6.670;2023-04-07T00:09:33;14.97;;;12.33;;
15480;SDS011;7842;50.904;6.670;2023-04-07T00:12:00;15.27;;;11.88;;
15480;SDS011;7842;50.904;6.670;2023-04-07T00:14:27;13.30;;;11.00;;
15480;SDS011;7842;50.904;6.670;2023-04-07T00:16:53;13.70;;;11.98;;
15480;SDS011;7842;50.904;6.670;2023-04-07T00:19:18;15.30;;;11.27;;
15480;SDS011;7842;50.904;6.670;2023-04-07T00:21:44;15.53;;;11.60;;
15480;SDS011;7842;50.904;6.670;2023-04-07T00:24:10;15.00;;;12.05;;
15480;SDS011;7842;50.904;6.670;2023-04-07T00:26:36;15.35;;;10.70;;
15480;SDS011;7842;50.904;6.670;2023-04-07T00:29:02;14.02;;;11.18;;
15480;SDS011;7842;50.904;6.670;2023-04-07T00:31:28;13.73;;;11.20;;
15480;SDS011;7842;50.904;6.670;2023-04-07T00:33:54;14.60;;;10.90;;
15480;SDS011;7842;50.904;6.670;2023-04-07T00:36:21;14.13;;;11.02;;
15480;SDS011;7842;50.904;6.670;2023-04-07T00:38:47;15.27;;;11.60;;
15480;SDS011;7842;50.904;6.670;2023-04-07T00:41:13;18.30;;;12.02;;
15480;SDS011;7842;50.904;6.670;2023-04-07T00:43:38;16.35;;;12.20;;
15480;SDS011;7842;50.904;6.670;2023-04-07T00:46:05;17.58;;;13.20;;
15480;SDS011;7842;50.904;6.670;2023-04-07T00:48:31;16.65;;;13.00;;
15480;SDS011;7842;50.904;6.670;2023-04-07T00:50:57;17.20;;;13.50;;
15480;SDS011;7842;50.904;6.670;2023-04-07T00:53:23;17.67;;;13.50;;
15480;SDS011;7842;50.904;6.670;2023-04-07T00:55:49;16.88;;;13.63;;
15480;SDS011;7842;50.904;6.670;2023-04-07T00:58:15;18.95;;;14.15;;
15480;SDS011;7842;50.904;6.670;2023-04-07T01:00:45;16.55;;;13.32;;
15480;SDS011;7842;50.904;6.670;2023-04-07T01:03:18;17.48;;;14.43;;
15480;SDS011;7842;50.904;6.670;2023-04-07T01:05:47;18.23;;;14.75;;
15480;SDS011;7842;50.904;6.670;2023-04-07T01:10:51;19.13;;;14.93;;
15480;SDS011;7842;50.904;6.670;2023-04-07T01:13:27;20.25;;;15.60;;
15480;SDS011;7842;50.904;6.670;2023-04-07T01:15:57;20.65;;;15.80;;
15480;SDS011;7842;50.904;6.670;2023-04-07T01:18:25;22.20;;;16.03;;
15480;SDS011;7842;50.904;6.670;2023-04-07T01:20:52;21.45;;;16.83;;
15480;SDS011;7842;50.904;6.670;2023-04-07T01:26:35;20.38;;;16.42;;
15480;SDS011;7842;50.904;6.670;2023-04-07T01:31:46;22.73;;;16.65;;
15480;SDS011;7842;50.904;6.670;2023-04-07T01:34:14;20.57;;;16.30;;
15480;SDS011;7842;50.904;6.670;2023-04-07T01:36:40;21.57;;;16.30;;
15480;SDS011;7842;50.904;6.670;2023-04-07T01:39:07;23.95;;;17.58;;
15480;SDS011;7842;50.904;6.670;2023-04-07T01:41:35;22.60;;;17.08;;
15480;SDS011;7842;50.904;6.670;2023-04-07T01:44:02;24.23;;;17.23;;
15480;SDS011;7842;50.904;6.670;2023-04-07T01:46:28;25.15;;;17.33;;
15480;SDS011;7842;50.904;6.670;2023-04-07T01:48:54;23.40;;;17.55;;
15480;SDS011;7842;50.904;6.670;2023-04-07T01:51:20;24.60;;;17.17;;
15480;SDS011;7842;50.904;6.670;2023-04-07T01:53:47;22.90;;;17.20;;
15480;SDS011;7842;50.904;6.670;2023-04-07T01:56:14;22.75;;;16.67;;
15480;SDS011;7842;50.904;6.670;2023-04-07T01:58:40;26.50;;;17.55;;
15480;SDS011;7842;50.904;6.670;2023-04-07T02:01:07;25.73;;;17.40;;
15480;SDS011;7842;50.904;6.670;2023-04-07T02:03:35;26.48;;;17.90;;
15480;SDS011;7842;50.904;6.670;2023-04-07T02:06:07;26.65;;;18.70;;
15480;SDS011;7842;50.904;6.670;2023-04-07T02:08:35;29.23;;;18.70;;
15480;SDS011;7842;50.904;6.670;2023-04-07T02:11:03;28.27;;;19.10;;
15480;SDS011;7842;50.904;6.670;2023-04-07T02:13:31;26.67;;;18.50;;
15480;SDS011;7842;50.904;6.670;2023-04-07T02:15:58;28.02;;;19.17;;
15480;SDS011;7842;50.904;6.670;2023-04-07T02:18:25;29.67;;;19.15;;
15480;SDS011;7842;50.904;6.670;2023-04-07T02:20:52;30.73;;;19.65;;
15480;SDS011;7842;50.904;6.670;2023-04-07T02:23:18;29.42;;;20.02;;
15480;SDS011;7842;50.904;6.670;2023-04-07T02:25:44;32.13;;;20.35;;
15480;SDS011;7842;50.904;6.670;2023-04-07T02:28:10;28.88;;;19.85;;
15480;SDS011;7842;50.904;6.670;2023-04-07T02:30:36;29.25;;;20.20;;
15480;SDS011;7842;50.904;6.670;2023-04-07T02:33:02;29.05;;;20.40;;
15480;SDS011;7842;50.904;6.670;2023-04-07T02:35:28;27.45;;;19.85;;
15480;SDS011;7842;50.904;6.670;2023-04-07T02:37:54;28.45;;;20.42;;
15480;SDS011;7842;50.904;6.670;2023-04-07T02:40:19;30.88;;;21.27;;
15480;SDS011;7842;50.904;6.670;2023-04-07T02:42:45;30.58;;;21.17;;
15480;SDS011;7842;50.904;6.670;2023-04-07T02:45:11;31.50;;;21.77;;
15480;SDS011;7842;50.904;6.670;2023-04-07T02:47:39;32.15;;;22.55;;
15480;SDS011;7842;50.904;6.670;2023-04-07T02:50:05;29.98;;;21.60;;
15480;SDS011;7842;50.904;6.670;2023-04-07T02:52:31;33.88;;;22.70;;
15480;SDS011;7842;50.904;6.670;2023-04-07T02:54:57;36.13;;;22.80;;
15480;SDS011;7842;50.904;6.670;2023-04-07T02:57:23;32.67;;;22.27;;
15480;SDS011;7842;50.904;6.670;2023-04-07T02:59:49;35.00;;;22.77;;
15480;SDS011;7842;50.904;6.670;2023-04-07T03:02:14;34.75;;;22.48;;
15480;SDS011;7842;50.904;6.670;2023-04-07T03:04:41;37.38;;;22.88;;
15480;SDS011;7842;50.904;6.670;2023-04-07T03:07:07;34.33;;;21.75;;
15480;SDS011;7842;50.904;6.670;2023-04-07T03:09:33;33.25;;;22.52;;
15480;SDS011;7842;50.904;6.670;2023-04-07T03:11:59;39.15;;;23.90;;
15480;SDS011;7842;50.904;6.670;2023-04-07T03:14:26;36.95;;;23.67;;
15480;SDS011;7842;50.904;6.670;2023-04-07T03:16:52;37.72;;;24.80;;
15480;SDS011;7842;50.904;6.670;2023-04-07T03:19:17;39.63;;;24.85;;
15480;SDS011;7842;50.904;6.670;2023-04-07T03:21:43;39.20;;;24.95;;
15480;SDS011;7842;50.904;6.670;2023-04-07T03:24:09;39.92;;;25.23;;
15480;SDS011;7842;50.904;6.670;2023-04-07T03:26:35;39.58;;;26.30;;
15480;SDS011;7842;50.904;6.670;2023-04-07T03:29:01;42.95;;;27.05;;
15480;SDS011;7842;50.904;6.670;2023-04-07T03:31:26;38.60;;;25.45;;
15480;SDS011;7842;50.904;6.670;2023-04-07T03:33:54;42.13;;;26.83;;
15480;SDS011;7842;50.904;6.670;2023-04-07T03:36:19;39.50;;;25.90;;
15480;SDS011;7842;50.904;6.670;2023-04-07T03:38:46;41.45;;;26.30;;
15480;SDS011;7842;50.904;6.670;2023-04-07T03:41:12;40.70;;;26.35;;
15480;SDS011;7842;50.904;6.670;2023-04-07T03:43:38;42.73;;;27.57;;
15480;SDS011;7842;50.904;6.670;2023-04-07T03:46:04;39.60;;;26.48;;
15480;SDS011;7842;50.904;6.670;2023-04-07T03:48:30;40.50;;;25.92;;
15480;SDS011;7842;50.904;6.670;2023-04-07T03:50:56;40.90;;;27.27;;
15480;SDS011;7842;50.904;6.670;2023-04-07T03:53:22;40.05;;;26.30;;
15480;SDS011;7842;50.904;6.670;2023-04-07T03:55:48;38.10;;;26.25;;
15480;SDS011;7842;50.904;6.670;2023-04-07T03:58:14;40.22;;;27.00;;
15480;SDS011;7842;50.904;6.670;2023-04-07T04:00:40;38.15;;;26.95;;
15480;SDS011;7842;50.904;6.670;2023-04-07T04:03:06;41.08;;;27.67;;
15480;SDS011;7842;50.904;6.670;2023-04-07T04:05:32;41.78;;;27.92;;
15480;SDS011;7842;50.904;6.670;2023-04-07T04:07:58;43.37;;;28.73;;
15480;SDS011;7842;50.904;6.670;2023-04-07T04:10:23;41.37;;;27.63;;
15480;SDS011;7842;50.904;6.670;2023-04-07T04:12:49;39.67;;;26.55;;
15480;SDS011;7842;50.904;6.670;2023-04-07T04:15:15;42.78;;;27.75;;
15480;SDS011;7842;50.904;6.670;2023-04-07T04:17:41;42.63;;;27.85;;
15480;SDS011;7842;50.904;6.670;2023-04-07T04:20:07;40.78;;;27.08;;
15480;SDS011;7842;50.904;6.670;2023-04-07T04:22:34;40.10;;;26.07;;
15480;SDS011;7842;50.904;6.670;2023-04-07T04:25:00;39.72;;;26.55;;
15480;SDS011;7842;50.904;6.670;2023-04-07T04:27:26;38.97;;;26.75;;
15480;SDS011;7842;50.904;6.670;2023-04-07T04:29:52;40.50;;;25.87;;
15480;SDS011;7842;50.904;6.670;2023-04-07T04:32:18;37.13;;;25.35;;
15480;SDS011;7842;50.904;6.670;2023-04-07T04:34:45;37.67;;;26.17;;
15480;SDS011;7842;50.904;6.670;2023-04-07T04:37:11;36.88;;;25.63;;
15480;SDS011;7842;50.904;6.670;2023-04-07T04:39:37;38.03;;;25.25;;
15480;SDS011;7842;50.904;6.670;2023-04-07T04:42:03;37.88;;;26.48;;
15480;SDS011;7842;50.904;6.670;2023-04-07T04:44:30;38.10;;;24.95;;
15480;SDS011;7842;50.904;6.670;2023-04-07T04:46:56;38.90;;;24.90;;
15480;SDS011;7842;50.904;6.670;2023-04-07T04:49:22;37.83;;;25.80;;
15480;SDS011;7842;50.904;6.670;2023-04-07T04:51:47;36.00;;;25.10;;
15480;SDS011;7842;50.904;6.670;2023-04-07T04:54:13;34.93;;;23.90;;
15480;SDS011;7842;50.904;6.670;2023-04-07T04:56:39;33.97;;;24.77;;
15480;SDS011;7842;50.904;6.670;2023-04-07T04:59:06;35.88;;;24.40;;
15480;SDS011;7842;50.904;6.670;2023-04-07T05:01:32;35.47;;;23.90;;
15480;SDS011;7842;50.904;6.670;2023-04-07T05:03:58;33.17;;;23.58;;
15480;SDS011;7842;50.904;6.670;2023-04-07T05:06:23;32.27;;;23.37;;
15480;SDS011;7842;50.904;6.670;2023-04-07T05:08:51;32.05;;;22.70;;
15480;SDS011;7842;50.904;6.670;2023-04-07T05:11:17;32.58;;;22.05;;
15480;SDS011;7842;50.904;6.670;2023-04-07T05:13:43;30.65;;;21.98;;
15480;SDS011;7842;50.904;6.670;2023-04-07T05:16:08;30.63;;;21.58;;
15480;SDS011;7842;50.904;6.670;2023-04-07T05:18:35;31.67;;;22.52;;
15480;SDS011;7842;50.904;6.670;2023-04-07T05:21:00;31.83;;;22.37;;
15480;SDS011;7842;50.904;6.670;2023-04-07T05:23:26;29.20;;;21.38;;
15480;SDS011;7842;50.904;6.670;2023-04-07T05:25:52;28.38;;;20.77;;
15480;SDS011;7842;50.904;6.670;2023-04-07T05:28:18;33.20;;;21.83;;
15480;SDS011;7842;50.904;6.670;2023-04-07T05:30:44;29.33;;;20.73;;
15480;SDS011;7842;50.904;6.670;2023-04-07T05:33:10;29.67;;;21.15;;
15480;SDS011;7842;50.904;6.670;2023-04-07T05:35:37;27.85;;;20.77;;
15480;SDS011;7842;50.904;6.670;2023-04-07T05:38:03;29.73;;;19.60;;
15480;SDS011;7842;50.904;6.670;2023-04-07T05:40:29;31.03;;;20.20;;
15480;SDS011;7842;50.904;6.670;2023-04-07T05:42:55;31.08;;;21.27;;
15480;SDS011;7842;50.904;6.670;2023-04-07T05:45:21;26.95;;;20.00;;
15480;SDS011;7842;50.904;6.670;2023-04-07T05:47:47;28.40;;;20.35;;
15480;SDS011;7842;50.904;6.670;2023-04-07T05:50:15;29.48;;;20.38;;
15480;SDS011;7842;50.904;6.670;2023-04-07T05:52:41;29.45;;;20.83;;
15480;SDS011;7842;50.904;6.670;2023-04-07T05:55:07;30.52;;;20.45;;
15480;SDS011;7842;50.904;6.670;2023-04-07T05:57:33;29.48;;;20.15;;
15480;SDS011;7842;50.904;6.670;2023-04-07T05:59:59;29.97;;;20.43;;
15480;SDS011;7842;50.904;6.670;2023-04-07T06:02:25;28.93;;;20.20;;
15480;SDS011;7842;50.904;6.670;2023-04-07T06:04:51;27.00;;;19.93;;
15480;SDS011;7842;50.904;6.670;2023-04-07T06:07:16;25.30;;;18.70;;
15480;SDS011;7842;50.904;6.670;2023-04-07T06:09:42;25.20;;;17.67;;
15480;SDS011;7842;50.904;6.670;2023-04-07T06:12:08;24.52;;;17.08;;
15480;SDS011;7842;50.904;6.670;2023-04-07T06:14:36;23.02;;;15.35;;
15480;SDS011;7842;50.904;6.670;2023-04-07T06:17:02;19.73;;;13.87;;
15480;SDS011;7842;50.904;6.670;2023-04-07T06:19:28;18.38;;;12.80;;
15480;SDS011;7842;50.904;6.670;2023-04-07T06:21:53;15.90;;;11.07;;
15480;SDS011;7842;50.904;6.670;2023-04-07T06:24:20;14.18;;;9.60;;
15480;SDS011;7842;50.904;6.670;2023-04-07T06:26:47;13.88;;;9.45;;
15480;SDS011;7842;50.904;6.670;2023-04-07T06:29:13;13.75;;;9.93;;
15480;SDS011;7842;50.904;6.670;2023-04-07T06:31:39;15.02;;;9.82;;
15480;SDS011;7842;50.904;6.670;2023-04-07T06:34:05;13.30;;;10.00;;
15480;SDS011;7842;50.904;6.670;2023-04-07T06:36:31;12.93;;;9.73;;
15480;SDS011;7842;50.904;6.670;2023-04-07T06:38:57;13.35;;;9.00;;
15480;SDS011;7842;50.904;6.670;2023-04-07T06:41:23;12.98;;;8.25;;
15480;SDS011;7842;50.904;6.670;2023-04-07T06:43:49;13.63;;;8.30;;
15480;SDS011;7842;50.904;6.670;2023-04-07T06:46:16;11.63;;;7.88;;
15480;SDS011;7842;50.904;6.670;2023-04-07T06:48:42;11.18;;;7.80;;
15480;SDS011;7842;50.904;6.670;2023-04-07T06:51:08;11.00;;;7.68;;
15480;SDS011;7842;50.904;6.670;2023-04-07T06:53:34;11.00;;;7.57;;
15480;SDS011;7842;50.904;6.670;2023-04-07T06:56:04;9.85;;;6.38;;
15480;SDS011;7842;50.904;6.670;2023-04-07T06:58:31;9.25;;;6.82;;
15480;SDS011;7842;50.904;6.670;2023-04-07T07:00:57;11.23;;;6.75;;
15480;SDS011;7842;50.904;6.670;2023-04-07T07:03:22;9.85;;;6.90;;
15480;SDS011;7842;50.904;6.670;2023-04-07T07:05:51;10.50;;;7.07;;
15480;SDS011;7842;50.904;6.670;2023-04-07T07:08:17;9.18;;;6.50;;
15480;SDS011;7842;50.904;6.670;2023-04-07T07:10:43;9.43;;;6.13;;
15480;SDS011;7842;50.904;6.670;2023-04-07T07:13:08;10.10;;;7.00;;
15480;SDS011;7842;50.904;6.670;2023-04-07T07:15:35;9.10;;;6.32;;
15480;SDS011;7842;50.904;6.670;2023-04-07T07:18:01;9.73;;;6.60;;
15480;SDS011;7842;50.904;6.670;2023-04-07T07:20:27;11.00;;;6.93;;
15480;SDS011;7842;50.904;6.670;2023-04-07T07:22:53;8.43;;;6.18;;
15480;SDS011;7842;50.904;6.670;2023-04-07T07:25:19;11.13;;;6.93;;
15480;SDS011;7842;50.904;6.670;2023-04-07T07:27:45;9.83;;;6.90;;
15480;SDS011;7842;50.904;6.670;2023-04-07T07:30:11;10.15;;;7.18;;
15480;SDS011;7842;50.904;6.670;2023-04-07T07:32:37;11.07;;;7.65;;
15480;SDS011;7842;50.904;6.670;2023-04-07T07:35:03;12.38;;;7.53;;
15480;SDS011;7842;50.904;6.670;2023-04-07T07:37:29;11.88;;;7.93;;
15480;SDS011;7842;50.904;6.670;2023-04-07T07:39:55;12.77;;;8.57;;
15480;SDS011;7842;50.904;6.670;2023-04-07T07:42:21;12.10;;;9.07;;
15480;SDS011;7842;50.904;6.670;2023-04-07T07:44:46;12.95;;;9.30;;
15480;SDS011;7842;50.904;6.670;2023-04-07T07:47:12;13.43;;;8.97;;
15480;SDS011;7842;50.904;6.670;2023-04-07T07:49:38;15.23;;;10.00;;
15480;SDS011;7842;50.904;6.670;2023-04-07T07:52:05;14.77;;;9.98;;
15480;SDS011;7842;50.904;6.670;2023-04-07T07:54:31;15.05;;;9.52;;
15480;SDS011;7842;50.904;6.670;2023-04-07T07:56:57;13.35;;;9.27;;
15480;SDS011;7842;50.904;6.670;2023-04-07T07:59:26;12.80;;;9.05;;
15480;SDS011;7842;50.904;6.670;2023-04-07T08:01:51;13.70;;;9.55;;
15480;SDS011;7842;50.904;6.670;2023-04-07T08:04:17;12.45;;;9.00;;
15480;SDS011;7842;50.904;6.670;2023-04-07T08:06:43;13.52;;;8.15;;
15480;SDS011;7842;50.904;6.670;2023-04-07T08:09:09;12.13;;;8.93;;
15480;SDS011;7842;50.904;6.670;2023-04-07T08:11:35;12.23;;;8.33;;
15480;SDS011;7842;50.904;6.670;2023-04-07T08:14:01;10.45;;;7.85;;
15480;SDS011;7842;50.904;6.670;2023-04-07T08:16:27;13.48;;;8.93;;
15480;SDS011;7842;50.904;6.670;2023-04-07T08:18:53;13.43;;;8.43;;
15480;SDS011;7842;50.904;6.670;2023-04-07T08:21:19;12.90;;;8.88;;
15480;SDS011;7842;50.904;6.670;2023-04-07T08:23:45;14.90;;;8.77;;
15480;SDS011;7842;50.904;6.670;2023-04-07T08:26:11;12.52;;;9.07;;
15480;SDS011;7842;50.904;6.670;2023-04-07T08:28:37;11.50;;;8.70;;
15480;SDS011;7842;50.904;6.670;2023-04-07T08:31:03;14.45;;;8.98;;
15480;SDS011;7842;50.904;6.670;2023-04-07T08:33:29;11.67;;;8.40;;
15480;SDS011;7842;50.904;6.670;2023-04-07T08:35:55;12.20;;;8.20;;
15480;SDS011;7842;50.904;6.670;2023-04-07T08:38:21;11.82;;;8.30;;
15480;SDS011;7842;50.904;6.670;2023-04-07T08:40:48;12.73;;;8.47;;
15480;SDS011;7842;50.904;6.670;2023-04-07T08:43:14;12.18;;;8.27;;
15480;SDS011;7842;50.904;6.670;2023-04-07T08:45:43;14.35;;;8.65;;
15480;SDS011;7842;50.904;6.670;2023-04-07T08:48:13;11.73;;;8.03;;
15480;SDS011;7842;50.904;6.670;2023-04-07T08:50:42;11.45;;;8.18;;
15480;SDS011;7842;50.904;6.670;2023-04-07T08:53:08;12.05;;;8.32;;
15480;SDS011;7842;50.904;6.670;2023-04-07T08:55:35;10.57;;;7.60;;
15480;SDS011;7842;50.904;6.670;2023-04-07T08:58:01;12.90;;;8.20;;
15480;SDS011;7842;50.904;6.670;2023-04-07T09:00:28;12.77;;;8.18;;
15480;SDS011;7842;50.904;6.670;2023-04-07T09:02:53;11.40;;;8.13;;
15480;SDS011;7842;50.904;6.670;2023-04-07T09:05:20;11.88;;;8.30;;
15480;SDS011;7842;50.904;6.670;2023-04-07T09:07:48;12.55;;;8.27;;
15480;SDS011;7842;50.904;6.670;2023-04-07T09:10:14;10.63;;;7.73;;
15480;SDS011;7842;50.904;6.670;2023-04-07T09:12:41;12.17;;;8.50;;
15480;SDS011;7842;50.904;6.670;2023-04-07T09:15:07;12.13;;;7.97;;
15480;SDS011;7842;50.904;6.670;2023-04-07T09:17:33;14.18;;;9.60;;
15480;SDS011;7842;50.904;6.670;2023-04-07T09:19:58;15.13;;;9.82;;
15480;SDS011;7842;50.904;6.670;2023-04-07T09:22:46;18.60;;;11.38;;
15480;SDS011;7842;50.904;6.670;2023-04-07T09:25:12;17.17;;;11.18;;
15480;SDS011;7842;50.904;6.670;2023-04-07T09:27:38;16.08;;;11.98;;
15480;SDS011;7842;50.904;6.670;2023-04-07T09:30:11;19.80;;;12.45;;
15480;SDS011;7842;50.904;6.670;2023-04-07T09:32:38;17.42;;;11.40;;
15480;SDS011;7842;50.904;6.670;2023-04-07T09:35:07;17.88;;;12.10;;
15480;SDS011;7842;50.904;6.670;2023-04-07T09:37:36;17.98;;;11.77;;
15480;SDS011;7842;50.904;6.670;2023-04-07T09:40:02;18.03;;;11.97;;
15480;SDS011;7842;50.904;6.670;2023-04-07T09:42:28;17.83;;;12.07;;
15480;SDS011;7842;50.904;6.670;2023-04-07T09:44:57;21.23;;;12.63;;
15480;SDS011;7842;50.904;6.670;2023-04-07T09:47:30;19.27;;;12.15;;
15480;SDS011;7842;50.904;6.670;2023-04-07T09:49:56;18.77;;;13.00;;
15480;SDS011;7842;50.904;6.670;2023-04-07T09:52:47;19.27;;;12.48;;
15480;SDS011;7842;50.904;6.670;2023-04-07T09:55:12;19.90;;;12.83;;
15480;SDS011;7842;50.904;6.670;2023-04-07T09:57:38;21.88;;;14.02;;
15480;SDS011;7842;50.904;6.670;2023-04-07T10:00:05;20.75;;;13.27;;
15480;SDS011;7842;50.904;6.670;2023-04-07T10:02:31;19.42;;;13.15;;
15480;SDS011;7842;50.904;6.670;2023-04-07T10:04:58;20.20;;;13.48;;
15480;SDS011;7842;50.904;6.670;2023-04-07T10:07:24;21.67;;;13.43;;
15480;SDS011;7842;50.904;6.670;2023-04-07T10:09:51;17.98;;;12.45;;
15480;SDS011;7842;50.904;6.670;2023-04-07T10:12:17;16.35;;;11.13;;
15480;SDS011;7842;50.904;6.670;2023-04-07T10:14:43;17.00;;;11.80;;
15480;SDS011;7842;50.904;6.670;2023-04-07T10:17:11;17.42;;;12.48;;
15480;SDS011;7842;50.904;6.670;2023-04-07T10:19:42;16.42;;;12.05;;
15480;SDS011;7842;50.904;6.670;2023-04-07T10:22:08;18.10;;;12.57;;
15480;SDS011;7842;50.904;6.670;2023-04-07T10:27:04;19.87;;;12.63;;
15480;SDS011;7842;50.904;6.670;2023-04-07T10:29:33;18.17;;;12.93;;
15480;SDS011;7842;50.904;6.670;2023-04-07T10:32:00;17.27;;;12.15;;
15480;SDS011;7842;50.904;6.670;2023-04-07T10:37:13;15.47;;;10.70;;
15480;SDS011;7842;50.904;6.670;2023-04-07T10:39:41;16.55;;;11.25;;
15480;SDS011;7842;50.904;6.670;2023-04-07T10:42:53;15.32;;;10.93;;
15480;SDS011;7842;50.904;6.670;2023-04-07T10:44:54;15.90;;;10.98;;
15480;SDS011;7842;50.904;6.670;2023-04-07T10:47:20;14.93;;;10.73;;
15480;SDS011;7842;50.904;6.670;2023-04-07T10:50:28;16.33;;;10.67;;
15480;SDS011;7842;50.904;6.670;2023-04-07T10:52:35;16.45;;;11.18;;
15480;SDS011;7842;50.904;6.670;2023-04-07T11:00:42;17.05;;;11.75;;
15480;SDS011;7842;50.904;6.670;2023-04-07T11:03:29;17.48;;;11.52;;
15480;SDS011;7842;50.904;6.670;2023-04-07T11:06:05;21.07;;;12.83;;
15480;SDS011;7842;50.904;6.670;2023-04-07T11:08:38;19.00;;;12.35;;
15480;SDS011;7842;50.904;6.670;2023-04-07T11:11:06;19.08;;;12.27;;
15480;SDS011;7842;50.904;6.670;2023-04-07T11:13:42;18.35;;;12.25;;
15480;SDS011;7842;50.904;6.670;2023-04-07T11:16:12;18.87;;;12.40;;
15480;SDS011;7842;50.904;6.670;2023-04-07T11:18:38;18.48;;;11.38;;
15480;SDS011;7842;50.904;6.670;2023-04-07T11:21:05;16.95;;;11.75;;
15480;SDS011;7842;50.904;6.670;2023-04-07T11:23:38;18.88;;;12.15;;
15480;SDS011;7842;50.904;6.670;2023-04-07T11:26:05;18.25;;;12.30;;
15480;SDS011;7842;50.904;6.670;2023-04-07T11:28:32;19.35;;;11.65;;
15480;SDS011;7842;50.904;6.670;2023-04-07T11:30:58;17.85;;;11.88;;
15480;SDS011;7842;50.904;6.670;2023-04-07T11:33:25;16.52;;;12.27;;
15480;SDS011;7842;50.904;6.670;2023-04-07T11:35:56;17.88;;;12.02;;
15480;SDS011;7842;50.904;6.670;2023-04-07T11:38:24;21.58;;;12.95;;
15480;SDS011;7842;50.904;6.670;2023-04-07T11:40:51;18.48;;;11.85;;
15480;SDS011;7842;50.904;6.670;2023-04-07T11:43:22;18.02;;;12.70;;
15480;SDS011;7842;50.904;6.670;2023-04-07T11:48:30;19.48;;;12.35;;
15480;SDS011;7842;50.904;6.670;2023-04-07T11:50:58;20.20;;;12.30;;
15480;SDS011;7842;50.904;6.670;2023-04-07T11:53:34;18.65;;;12.32;;
15480;SDS011;7842;50.904;6.670;2023-04-07T11:58:33;19.38;;;12.93;;
15480;SDS011;7842;50.904;6.670;2023-04-07T12:01:00;19.60;;;12.67;;
15480;SDS011;7842;50.904;6.670;2023-04-07T12:03:33;18.23;;;12.17;;
15480;SDS011;7842;50.904;6.670;2023-04-07T12:05:59;18.23;;;12.73;;
15480;SDS011;7842;50.904;6.670;2023-04-07T12:08:38;19.00;;;12.40;;
15480;SDS011;7842;50.904;6.670;2023-04-07T12:11:05;18.03;;;12.80;;
15480;SDS011;7842;50.904;6.670;2023-04-07T12:13:31;17.88;;;12.60;;
15480;SDS011;7842;50.904;6.670;2023-04-07T12:15:58;19.00;;;12.88;;
15480;SDS011;7842;50.904;6.670;2023-04-07T12:18:24;19.15;;;13.43;;
15480;SDS011;7842;50.904;6.670;2023-04-07T12:20:51;20.58;;;13.25;;
15480;SDS011;7842;50.904;6.670;2023-04-07T12:23:19;22.50;;;13.63;;
15480;SDS011;7842;50.904;6.670;2023-04-07T12:25:48;18.55;;;12.93;;
15480;SDS011;7842;50.904;6.670;2023-04-07T12:28:14;18.92;;;12.60;;
15480;SDS011;7842;50.904;6.670;2023-04-07T12:30:40;19.70;;;12.93;;
15480;SDS011;7842;50.904;6.670;2023-04-07T12:33:06;20.60;;;13.15;;
15480;SDS011;7842;50.904;6.670;2023-04-07T12:35:32;19.92;;;13.05;;
15480;SDS011;7842;50.904;6.670;2023-04-07T12:37:58;18.27;;;12.48;;
15480;SDS011;7842;50.904;6.670;2023-04-07T12:40:24;21.42;;;13.23;;
15480;SDS011;7842;50.904;6.670;2023-04-07T12:42:50;19.08;;;12.80;;
15480;SDS011;7842;50.904;6.670;2023-04-07T12:45:16;17.67;;;12.65;;
15480;SDS011;7842;50.904;6.670;2023-04-07T12:47:43;15.73;;;11.93;;
15480;SDS011;7842;50.904;6.670;2023-04-07T12:50:09;16.42;;;11.90;;
15480;SDS011;7842;50.904;6.670;2023-04-07T12:52:35;16.20;;;11.32;;
15480;SDS011;7842;50.904;6.670;2023-04-07T12:55:01;15.63;;;11.43;;
15480;SDS011;7842;50.904;6.670;2023-04-07T12:57:27;15.85;;;11.10;;
15480;SDS011;7842;50.904;6.670;2023-04-07T12:59:53;16.17;;;11.33;;
15480;SDS011;7842;50.904;6.670;2023-04-07T13:02:19;16.23;;;11.80;;
15480;SDS011;7842;50.904;6.670;2023-04-07T13:04:46;16.75;;;11.63;;
15480;SDS011;7842;50.904;6.670;2023-04-07T13:07:12;15.88;;;11.18;;
15480;SDS011;7842;50.904;6.670;2023-04-07T13:09:38;15.30;;;11.05;;
15480;SDS011;7842;50.904;6.670;2023-04-07T13:12:08;15.98;;;11.25;;
15480;SDS011;7842;50.904;6.670;2023-04-07T13:14:44;14.73;;;10.52;;
15480;SDS011;7842;50.904;6.670;2023-04-07T13:17:10;13.60;;;10.07;;
15480;SDS011;7842;50.904;6.670;2023-04-07T13:19:36;11.82;;;9.10;;
15480;SDS011;7842;50.904;6.670;2023-04-07T13:22:04;12.48;;;8.40;;
15480;SDS011;7842;50.904;6.670;2023-04-07T13:24:30;12.38;;;8.38;;
15480;SDS011;7842;50.904;6.670;2023-04-07T13:26:57;10.93;;;8.80;;
15480;SDS011;7842;50.904;6.670;2023-04-07T13:29:23;12.07;;;8.30;;
15480;SDS011;7842;50.904;6.670;2023-04-07T13:31:59;11.07;;;8.52;;
15480;SDS011;7842;50.904;6.670;2023-04-07T13:34:28;11.82;;;8.45;;
15480;SDS011;7842;50.904;6.670;2023-04-07T13:36:54;11.20;;;8.63;;
15480;SDS011;7842;50.904;6.670;2023-04-07T13:39:21;11.20;;;8.40;;
15480;SDS011;7842;50.904;6.670;2023-04-07T13:41:47;11.55;;;7.88;;
15480;SDS011;7842;50.904;6.670;2023-04-07T13:44:13;11.63;;;8.23;;
15480;SDS011;7842;50.904;6.670;2023-04-07T13:46:38;10.48;;;8.10;;
15480;SDS011;7842;50.904;6.670;2023-04-07T13:49:04;11.35;;;8.00;;
15480;SDS011;7842;50.904;6.670;2023-04-07T13:51:31;10.80;;;8.38;;
15480;SDS011;7842;50.904;6.670;2023-04-07T13:53:57;9.95;;;8.15;;
15480;SDS011;7842;50.904;6.670;2023-04-07T13:56:24;10.07;;;7.93;;
15480;SDS011;7842;50.904;6.670;2023-04-07T13:58:50;15.27;;;10.38;;
15480;SDS011;7842;50.904;6.670;2023-04-07T14:01:16;18.73;;;12.57;;
15480;SDS011;7842;50.904;6.670;2023-04-07T14:03:42;17.13;;;12.90;;
15480;SDS011;7842;50.904;6.670;2023-04-07T14:06:09;16.35;;;12.38;;
15480;SDS011;7842;50.904;6.670;2023-04-07T14:08:35;16.15;;;11.27;;
15480;SDS011;7842;50.904;6.670;2023-04-07T14:11:01;13.70;;;10.55;;
15480;SDS011;7842;50.904;6.670;2023-04-07T14:13:27;12.93;;;9.90;;
15480;SDS011;7842;50.904;6.670;2023-04-07T14:15:53;11.35;;;9.52;;
15480;SDS011;7842;50.904;6.670;2023-04-07T14:18:19;12.48;;;8.70;;
15480;SDS011;7842;50.904;6.670;2023-04-07T14:20:47;10.90;;;8.02;;
15480;SDS011;7842;50.904;6.670;2023-04-07T14:23:14;11.50;;;8.45;;
15480;SDS011;7842;50.904;6.670;2023-04-07T14:25:40;11.50;;;8.32;;
15480;SDS011;7842;50.904;6.670;2023-04-07T14:28:06;12.45;;;9.00;;
15480;SDS011;7842;50.904;6.670;2023-04-07T14:30:36;13.18;;;8.95;;
15480;SDS011;7842;50.904;6.670;2023-04-07T14:33:03;12.07;;;9.18;;
15480;SDS011;7842;50.904;6.670;2023-04-07T14:35:29;12.93;;;9.02;;
15480;SDS011;7842;50.904;6.670;2023-04-07T14:37:55;13.50;;;8.55;;
15480;SDS011;7842;50.904;6.670;2023-04-07T14:40:21;12.70;;;8.60;;
15480;SDS011;7842;50.904;6.670;2023-04-07T14:42:47;13.98;;;9.15;;
15480;SDS011;7842;50.904;6.670;2023-04-07T14:45:13;11.02;;;8.85;;
15480;SDS011;7842;50.904;6.670;2023-04-07T14:47:39;13.77;;;8.38;;
15480;SDS011;7842;50.904;6.670;2023-04-07T14:50:06;10.93;;;7.20;;
15480;SDS011;7842;50.904;6.670;2023-04-07T14:52:32;10.75;;;7.13;;
15480;SDS011;7842;50.904;6.670;2023-04-07T14:54:58;11.07;;;7.00;;
15480;SDS011;7842;50.904;6.670;2023-04-07T14:57:24;8.02;;;6.32;;
15480;SDS011;7842;50.904;6.670;2023-04-07T14:59:50;10.10;;;6.95;;
15480;SDS011;7842;50.904;6.670;2023-04-07T15:02:16;9.00;;;6.53;;